sensor_id;sensor_type;location;lat;lon;timestamp;P1;durP1;ratioP1;P2;durP2;ratioP2
13588;SDS011;6865;52.552;13.434;2022-09-09T00:00:40;8.10;;;7.30;;
13588;SDS011;6865;52.552;13.434;2022-09-09T00:03:27;7.63;;;6.93;;
13588;SDS011;6865;52.552;13.434;2022-09-09T00:05:59;8.38;;;7.57;;
13588;SDS011;6865;52.552;13.434;2022-09-09T00:11:42;7.97;;;7.17;;
13588;SDS011;6865;52.552;13.434;2022-09-09T00:14:23;8.80;;;8.00;;
13588;SDS011;6865;52.552;13.434;2022-09-09T00:17:01;9.83;;;8.37;;
13588;SDS011;6865;52.552;13.434;2022-09-09T00:19:40;8.70;;;7.80;;
13588;SDS011;6865;52.552;13.434;2022-09-09T00:22:29;9.43;;;8.43;;
13588;SDS011;6865;52.552;13.434;2022-09-09T00:25:14;8.83;;;7.93;;
13588;SDS011;6865;52.552;13.434;2022-09-09T00:28:04;8.80;;;7.93;;
13588;SDS011;6865;52.552;13.434;2022-09-09T00:30:43;8.88;;;7.93;;
13588;SDS011;6865;52.552;13.434;2022-09-09T00:33:15;8.87;;;7.97;;
13588;SDS011;6865;52.552;13.434;2022-09-09T00:35:47;8.55;;;7.75;;
13588;SDS011;6865;52.552;13.434;2022-09-09T00:38:32;8.57;;;7.72;;
13588;SDS011;6865;52.552;13.434;2022-09-09T00:41:29;9.30;;;8.40;;
13588;SDS011;6865;52.552;13.434;2022-09-09T00:47:04;8.33;;;7.63;;
13588;SDS011;6865;52.552;13.434;2022-09-09T00:57:54;8.50;;;7.70;;
13588;SDS011;6865;52.552;13.434;2022-09-09T01:00:26;10.07;;;7.78;;
13588;SDS011;6865;52.552;13.434;2022-09-09T01:05:36;8.73;;;7.82;;
13588;SDS011;6865;52.552;13.434;2022-09-09T01:08:17;8.43;;;7.53;;
13588;SDS011;6865;52.552;13.434;2022-09-09T01:10:52;9.83;;;8.87;;
13588;SDS011;6865;52.552;13.434;2022-09-09T01:13:27;9.40;;;8.50;;
13588;SDS011;6865;52.552;13.434;2022-09-09T01:16:00;9.10;;;8.13;;
13588;SDS011;6865;52.552;13.434;2022-09-09T01:18:33;9.07;;;8.13;;
13588;SDS011;6865;52.552;13.434;2022-09-09T01:21:16;8.73;;;7.87;;
13588;SDS011;6865;52.552;13.434;2022-09-09T01:26:58;9.90;;;8.90;;
13588;SDS011;6865;52.552;13.434;2022-09-09T01:29:28;9.67;;;8.77;;
13588;SDS011;6865;52.552;13.434;2022-09-09T01:31:56;10.20;;;9.10;;
13588;SDS011;6865;52.552;13.434;2022-09-09T01:34:36;9.82;;;8.90;;
13588;SDS011;6865;52.552;13.434;2022-09-09T01:37:07;9.87;;;8.93;;
13588;SDS011;6865;52.552;13.434;2022-09-09T01:39:37;11.03;;;9.93;;
13588;SDS011;6865;52.552;13.434;2022-09-09T01:42:06;8.90;;;8.10;;
13588;SDS011;6865;52.552;13.434;2022-09-09T01:44:35;9.83;;;8.83;;
13588;SDS011;6865;52.552;13.434;2022-09-09T01:47:03;10.30;;;8.90;;
13588;SDS011;6865;52.552;13.434;2022-09-09T01:49:30;10.40;;;9.40;;
13588;SDS011;6865;52.552;13.434;2022-09-09T01:51:58;11.57;;;9.90;;
13588;SDS011;6865;52.552;13.434;2022-09-09T01:54:26;10.23;;;9.23;;
13588;SDS011;6865;52.552;13.434;2022-09-09T02:02:39;9.70;;;8.77;;
13588;SDS011;6865;52.552;13.434;2022-09-09T02:08:08;9.87;;;8.97;;
13588;SDS011;6865;52.552;13.434;2022-09-09T02:10:40;9.67;;;8.67;;
13588;SDS011;6865;52.552;13.434;2022-09-09T02:13:13;10.17;;;8.63;;
13588;SDS011;6865;52.552;13.434;2022-09-09T02:15:47;8.73;;;7.93;;
13588;SDS011;6865;52.552;13.434;2022-09-09T02:18:28;10.20;;;8.63;;
13588;SDS011;6865;52.552;13.434;2022-09-09T02:21:01;8.40;;;7.60;;
13588;SDS011;6865;52.552;13.434;2022-09-09T02:23:29;9.70;;;8.63;;
13588;SDS011;6865;52.552;13.434;2022-09-09T02:25:56;9.43;;;8.53;;
13588;SDS011;6865;52.552;13.434;2022-09-09T02:28:25;9.60;;;8.70;;
13588;SDS011;6865;52.552;13.434;2022-09-09T02:30:54;9.17;;;8.27;;
13588;SDS011;6865;52.552;13.434;2022-09-09T02:33:26;9.10;;;8.20;;
13588;SDS011;6865;52.552;13.434;2022-09-09T02:35:56;10.67;;;8.00;;
13588;SDS011;6865;52.552;13.434;2022-09-09T02:38:29;9.70;;;8.60;;
13588;SDS011;6865;52.552;13.434;2022-09-09T02:41:01;9.00;;;7.87;;
13588;SDS011;6865;52.552;13.434;2022-09-09T02:43:32;9.17;;;8.20;;
13588;SDS011;6865;52.552;13.434;2022-09-09T02:46:04;9.57;;;8.57;;
13588;SDS011;6865;52.552;13.434;2022-09-09T02:48:50;8.70;;;7.80;;
13588;SDS011;6865;52.552;13.434;2022-09-09T02:51:24;9.07;;;7.80;;
13588;SDS011;6865;52.552;13.434;2022-09-09T02:54:04;8.80;;;7.90;;
13588;SDS011;6865;52.552;13.434;2022-09-09T02:56:45;8.07;;;7.27;;
13588;SDS011;6865;52.552;13.434;2022-09-09T02:59:16;8.40;;;7.60;;
13588;SDS011;6865;52.552;13.434;2022-09-09T03:01:44;8.33;;;7.53;;
13588;SDS011;6865;52.552;13.434;2022-09-09T03:04:11;9.00;;;8.10;;
13588;SDS011;6865;52.552;13.434;2022-09-09T03:06:37;8.70;;;7.53;;
13588;SDS011;6865;52.552;13.434;2022-09-09T03:09:04;9.00;;;7.03;;
13588;SDS011;6865;52.552;13.434;2022-09-09T03:11:31;10.00;;;8.17;;
13588;SDS011;6865;52.552;13.434;2022-09-09T03:13:58;9.13;;;7.60;;
13588;SDS011;6865;52.552;13.434;2022-09-09T03:16:24;8.47;;;7.63;;
13588;SDS011;6865;52.552;13.434;2022-09-09T03:18:51;9.13;;;7.87;;
13588;SDS011;6865;52.552;13.434;2022-09-09T03:21:18;9.33;;;8.07;;
13588;SDS011;6865;52.552;13.434;2022-09-09T03:23:44;9.13;;;7.97;;
13588;SDS011;6865;52.552;13.434;2022-09-09T03:26:11;8.17;;;7.37;;
13588;SDS011;6865;52.552;13.434;2022-09-09T03:28:41;9.30;;;7.50;;
13588;SDS011;6865;52.552;13.434;2022-09-09T03:31:08;9.10;;;7.47;;
13588;SDS011;6865;52.552;13.434;2022-09-09T03:33:37;9.40;;;7.60;;
13588;SDS011;6865;52.552;13.434;2022-09-09T03:36:04;9.57;;;7.67;;
13588;SDS011;6865;52.552;13.434;2022-09-09T03:38:31;8.07;;;7.27;;
13588;SDS011;6865;52.552;13.434;2022-09-09T03:40:58;8.53;;;7.63;;
13588;SDS011;6865;52.552;13.434;2022-09-09T03:43:26;8.07;;;7.37;;
13588;SDS011;6865;52.552;13.434;2022-09-09T03:45:54;8.90;;;8.00;;
13588;SDS011;6865;52.552;13.434;2022-09-09T03:48:24;8.50;;;7.60;;
13588;SDS011;6865;52.552;13.434;2022-09-09T03:50:53;8.20;;;7.17;;
13588;SDS011;6865;52.552;13.434;2022-09-09T03:53:21;9.80;;;7.83;;
13588;SDS011;6865;52.552;13.434;2022-09-09T03:55:52;8.50;;;7.60;;
13588;SDS011;6865;52.552;13.434;2022-09-09T03:58:23;8.27;;;7.40;;
13588;SDS011;6865;52.552;13.434;2022-09-09T04:00:56;7.77;;;6.93;;
13588;SDS011;6865;52.552;13.434;2022-09-09T04:03:24;10.00;;;7.80;;
13588;SDS011;6865;52.552;13.434;2022-09-09T04:05:54;8.00;;;7.10;;
13588;SDS011;6865;52.552;13.434;2022-09-09T04:08:22;9.10;;;7.57;;
13588;SDS011;6865;52.552;13.434;2022-09-09T04:10:51;8.27;;;7.40;;
13588;SDS011;6865;52.552;13.434;2022-09-09T04:13:19;7.13;;;6.40;;
13588;SDS011;6865;52.552;13.434;2022-09-09T04:15:52;7.50;;;6.70;;
13588;SDS011;6865;52.552;13.434;2022-09-09T04:18:25;10.43;;;7.27;;
13588;SDS011;6865;52.552;13.434;2022-09-09T04:20:54;7.57;;;6.77;;
13588;SDS011;6865;52.552;13.434;2022-09-09T04:23:23;8.97;;;7.17;;
13588;SDS011;6865;52.552;13.434;2022-09-09T04:25:51;7.90;;;7.10;;
13588;SDS011;6865;52.552;13.434;2022-09-09T04:28:20;7.80;;;6.97;;
13588;SDS011;6865;52.552;13.434;2022-09-09T04:30:49;11.67;;;7.30;;
13588;SDS011;6865;52.552;13.434;2022-09-09T04:33:17;7.77;;;6.97;;
13588;SDS011;6865;52.552;13.434;2022-09-09T04:35:45;8.03;;;6.90;;
13588;SDS011;6865;52.552;13.434;2022-09-09T04:38:16;7.87;;;7.10;;
13588;SDS011;6865;52.552;13.434;2022-09-09T04:40:43;8.53;;;6.70;;
13588;SDS011;6865;52.552;13.434;2022-09-09T04:43:12;7.37;;;6.67;;
13588;SDS011;6865;52.552;13.434;2022-09-09T04:46:04;8.57;;;7.30;;
13588;SDS011;6865;52.552;13.434;2022-09-09T04:48:31;8.27;;;6.70;;
13588;SDS011;6865;52.552;13.434;2022-09-09T04:50:59;7.57;;;6.70;;
13588;SDS011;6865;52.552;13.434;2022-09-09T04:53:28;9.53;;;7.00;;
13588;SDS011;6865;52.552;13.434;2022-09-09T04:56:05;9.13;;;7.57;;
13588;SDS011;6865;52.552;13.434;2022-09-09T04:58:32;8.47;;;6.53;;
13588;SDS011;6865;52.552;13.434;2022-09-09T05:01:06;8.37;;;6.53;;
13588;SDS011;6865;52.552;13.434;2022-09-09T05:03:33;8.67;;;6.87;;
13588;SDS011;6865;52.552;13.434;2022-09-09T05:06:07;8.07;;;6.70;;
13588;SDS011;6865;52.552;13.434;2022-09-09T05:08:36;7.00;;;6.30;;
13588;SDS011;6865;52.552;13.434;2022-09-09T05:11:13;8.10;;;6.27;;
13588;SDS011;6865;52.552;13.434;2022-09-09T05:13:58;8.30;;;6.97;;
13588;SDS011;6865;52.552;13.434;2022-09-09T05:16:25;9.50;;;6.40;;
13588;SDS011;6865;52.552;13.434;2022-09-09T05:18:52;10.30;;;6.10;;
13588;SDS011;6865;52.552;13.434;2022-09-09T05:21:20;6.47;;;5.73;;
13588;SDS011;6865;52.552;13.434;2022-09-09T05:23:49;6.90;;;6.20;;
13588;SDS011;6865;52.552;13.434;2022-09-09T05:26:18;7.07;;;6.23;;
13588;SDS011;6865;52.552;13.434;2022-09-09T05:28:46;7.50;;;5.97;;
13588;SDS011;6865;52.552;13.434;2022-09-09T05:31:13;7.03;;;5.60;;
13588;SDS011;6865;52.552;13.434;2022-09-09T05:33:41;8.53;;;5.87;;
13588;SDS011;6865;52.552;13.434;2022-09-09T05:36:11;6.87;;;6.17;;
13588;SDS011;6865;52.552;13.434;2022-09-09T05:38:43;10.97;;;5.60;;
13588;SDS011;6865;52.552;13.434;2022-09-09T05:41:10;7.40;;;6.33;;
13588;SDS011;6865;52.552;13.434;2022-09-09T05:43:38;7.00;;;5.93;;
13588;SDS011;6865;52.552;13.434;2022-09-09T05:46:05;7.17;;;5.40;;
13588;SDS011;6865;52.552;13.434;2022-09-09T05:48:37;10.80;;;5.77;;
13588;SDS011;6865;52.552;13.434;2022-09-09T05:51:06;7.07;;;5.17;;
13588;SDS011;6865;52.552;13.434;2022-09-09T05:53:35;8.83;;;5.53;;
13588;SDS011;6865;52.552;13.434;2022-09-09T05:56:03;7.03;;;5.43;;
13588;SDS011;6865;52.552;13.434;2022-09-09T05:58:36;8.30;;;6.10;;
13588;SDS011;6865;52.552;13.434;2022-09-09T06:01:07;7.13;;;5.57;;
13588;SDS011;6865;52.552;13.434;2022-09-09T06:03:36;5.70;;;5.13;;
13588;SDS011;6865;52.552;13.434;2022-09-09T06:06:05;8.43;;;5.47;;
13588;SDS011;6865;52.552;13.434;2022-09-09T06:08:34;9.70;;;5.60;;
13588;SDS011;6865;52.552;13.434;2022-09-09T06:11:09;10.80;;;5.63;;
13588;SDS011;6865;52.552;13.434;2022-09-09T06:13:38;7.73;;;5.23;;
13588;SDS011;6865;52.552;13.434;2022-09-09T06:16:06;6.70;;;4.90;;
13588;SDS011;6865;52.552;13.434;2022-09-09T06:18:37;9.93;;;4.87;;
13588;SDS011;6865;52.552;13.434;2022-09-09T06:21:05;6.43;;;5.10;;
13588;SDS011;6865;52.552;13.434;2022-09-09T06:23:35;8.33;;;4.70;;
13588;SDS011;6865;52.552;13.434;2022-09-09T06:26:03;5.33;;;4.70;;
13588;SDS011;6865;52.552;13.434;2022-09-09T06:28:35;6.47;;;4.47;;
13588;SDS011;6865;52.552;13.434;2022-09-09T06:31:03;8.30;;;4.90;;
13588;SDS011;6865;52.552;13.434;2022-09-09T06:33:33;6.70;;;4.70;;
13588;SDS011;6865;52.552;13.434;2022-09-09T06:36:02;5.15;;;4.53;;
13588;SDS011;6865;52.552;13.434;2022-09-09T06:38:29;8.37;;;4.50;;
13588;SDS011;6865;52.552;13.434;2022-09-09T06:40:57;6.82;;;4.47;;
13588;SDS011;6865;52.552;13.434;2022-09-09T06:43:25;6.77;;;3.80;;
13588;SDS011;6865;52.552;13.434;2022-09-09T06:45:59;6.03;;;3.50;;
13588;SDS011;6865;52.552;13.434;2022-09-09T06:48:28;4.88;;;3.25;;
13588;SDS011;6865;52.552;13.434;2022-09-09T06:51:05;6.18;;;3.65;;
13588;SDS011;6865;52.552;13.434;2022-09-09T06:53:34;6.70;;;3.95;;
13588;SDS011;6865;52.552;13.434;2022-09-09T06:56:03;7.50;;;3.90;;
13588;SDS011;6865;52.552;13.434;2022-09-09T06:58:52;9.38;;;4.03;;
13588;SDS011;6865;52.552;13.434;2022-09-09T07:01:20;5.15;;;3.67;;
13588;SDS011;6865;52.552;13.434;2022-09-09T07:03:51;6.90;;;3.72;;
13588;SDS011;6865;52.552;13.434;2022-09-09T07:06:23;5.70;;;3.58;;
13588;SDS011;6865;52.552;13.434;2022-09-09T07:09:10;4.53;;;3.58;;
13588;SDS011;6865;52.552;13.434;2022-09-09T07:11:39;5.75;;;3.88;;
13588;SDS011;6865;52.552;13.434;2022-09-09T07:14:07;8.50;;;4.50;;
13588;SDS011;6865;52.552;13.434;2022-09-09T07:16:35;5.55;;;3.88;;
13588;SDS011;6865;52.552;13.434;2022-09-09T07:19:03;6.07;;;3.50;;
13588;SDS011;6865;52.552;13.434;2022-09-09T07:21:30;4.93;;;3.30;;
13588;SDS011;6865;52.552;13.434;2022-09-09T07:23:58;7.18;;;3.30;;
13588;SDS011;6865;52.552;13.434;2022-09-09T07:26:26;6.13;;;3.22;;
13588;SDS011;6865;52.552;13.434;2022-09-09T07:28:54;4.60;;;2.90;;
13588;SDS011;6865;52.552;13.434;2022-09-09T07:31:25;3.58;;;2.95;;
13588;SDS011;6865;52.552;13.434;2022-09-09T07:33:57;6.82;;;2.88;;
13588;SDS011;6865;52.552;13.434;2022-09-09T07:36:28;5.40;;;2.83;;
13588;SDS011;6865;52.552;13.434;2022-09-09T07:39:03;9.48;;;2.92;;
13588;SDS011;6865;52.552;13.434;2022-09-09T07:41:33;8.55;;;3.05;;
13588;SDS011;6865;52.552;13.434;2022-09-09T07:44:16;3.72;;;2.75;;
13588;SDS011;6865;52.552;13.434;2022-09-09T07:46:47;6.57;;;2.75;;
13588;SDS011;6865;52.552;13.434;2022-09-09T07:49:14;7.57;;;2.85;;
13588;SDS011;6865;52.552;13.434;2022-09-09T07:51:42;6.05;;;2.80;;
13588;SDS011;6865;52.552;13.434;2022-09-09T07:54:12;8.18;;;2.80;;
13588;SDS011;6865;52.552;13.434;2022-09-09T07:56:40;8.95;;;3.10;;
13588;SDS011;6865;52.552;13.434;2022-09-09T07:59:08;4.75;;;2.13;;
13588;SDS011;6865;52.552;13.434;2022-09-09T08:01:39;5.25;;;2.50;;
13588;SDS011;6865;52.552;13.434;2022-09-09T08:04:12;6.10;;;2.20;;
13588;SDS011;6865;52.552;13.434;2022-09-09T08:06:45;3.40;;;2.25;;
13588;SDS011;6865;52.552;13.434;2022-09-09T08:09:14;5.28;;;2.67;;
13588;SDS011;6865;52.552;13.434;2022-09-09T08:11:42;4.65;;;2.13;;
13588;SDS011;6865;52.552;13.434;2022-09-09T08:14:09;4.05;;;2.60;;
13588;SDS011;6865;52.552;13.434;2022-09-09T08:16:38;7.60;;;2.63;;
13588;SDS011;6865;52.552;13.434;2022-09-09T08:19:07;5.03;;;2.10;;
13588;SDS011;6865;52.552;13.434;2022-09-09T08:21:35;4.40;;;2.20;;
13588;SDS011;6865;52.552;13.434;2022-09-09T08:24:05;5.70;;;2.42;;
13588;SDS011;6865;52.552;13.434;2022-09-09T08:26:34;5.32;;;2.50;;
13588;SDS011;6865;52.552;13.434;2022-09-09T08:29:11;4.60;;;2.25;;
13588;SDS011;6865;52.552;13.434;2022-09-09T08:31:41;3.83;;;2.28;;
13588;SDS011;6865;52.552;13.434;2022-09-09T08:34:09;4.03;;;2.10;;
13588;SDS011;6865;52.552;13.434;2022-09-09T08:36:37;4.70;;;2.33;;
13588;SDS011;6865;52.552;13.434;2022-09-09T08:39:10;5.88;;;2.25;;
13588;SDS011;6865;52.552;13.434;2022-09-09T08:41:40;3.22;;;2.25;;
13588;SDS011;6865;52.552;13.434;2022-09-09T08:47:03;4.53;;;2.28;;
13588;SDS011;6865;52.552;13.434;2022-09-09T08:53:02;3.05;;;1.92;;
13588;SDS011;6865;52.552;13.434;2022-09-09T08:55:39;5.53;;;2.20;;
13588;SDS011;6865;52.552;13.434;2022-09-09T08:58:21;7.90;;;2.50;;
13588;SDS011;6865;52.552;13.434;2022-09-09T09:06:55;4.22;;;2.58;;
13588;SDS011;6865;52.552;13.434;2022-09-09T09:09:42;7.20;;;3.80;;
13588;SDS011;6865;52.552;13.434;2022-09-09T09:12:50;7.13;;;2.40;;
13588;SDS011;6865;52.552;13.434;2022-09-09T09:15:18;4.10;;;2.60;;
13588;SDS011;6865;52.552;13.434;2022-09-09T09:17:49;6.22;;;2.30;;
13588;SDS011;6865;52.552;13.434;2022-09-09T09:20:17;3.60;;;2.00;;
13588;SDS011;6865;52.552;13.434;2022-09-09T09:22:51;2.95;;;2.22;;
13588;SDS011;6865;52.552;13.434;2022-09-09T09:25:21;5.00;;;2.33;;
13588;SDS011;6865;52.552;13.434;2022-09-09T09:28:00;5.78;;;2.25;;
13588;SDS011;6865;52.552;13.434;2022-09-09T09:30:41;4.57;;;2.00;;
13588;SDS011;6865;52.552;13.434;2022-09-09T09:33:17;6.57;;;2.25;;
13588;SDS011;6865;52.552;13.434;2022-09-09T09:36:14;5.47;;;2.30;;
13588;SDS011;6865;52.552;13.434;2022-09-09T09:38:55;6.68;;;2.33;;
13588;SDS011;6865;52.552;13.434;2022-09-09T09:41:42;7.57;;;2.38;;
13588;SDS011;6865;52.552;13.434;2022-09-09T09:44:22;6.82;;;2.50;;
13588;SDS011;6865;52.552;13.434;2022-09-09T09:47:07;3.75;;;2.05;;
13588;SDS011;6865;52.552;13.434;2022-09-09T09:49:34;7.95;;;2.40;;
13588;SDS011;6865;52.552;13.434;2022-09-09T09:52:02;4.75;;;2.42;;
13588;SDS011;6865;52.552;13.434;2022-09-09T09:54:31;6.68;;;2.20;;
13588;SDS011;6865;52.552;13.434;2022-09-09T09:57:10;6.88;;;2.50;;
13588;SDS011;6865;52.552;13.434;2022-09-09T09:59:39;5.18;;;2.20;;
13588;SDS011;6865;52.552;13.434;2022-09-09T10:02:13;4.88;;;2.42;;
13588;SDS011;6865;52.552;13.434;2022-09-09T10:05:03;3.38;;;1.98;;
13588;SDS011;6865;52.552;13.434;2022-09-09T10:07:38;5.45;;;2.15;;
13588;SDS011;6865;52.552;13.434;2022-09-09T10:10:05;3.70;;;2.22;;
13588;SDS011;6865;52.552;13.434;2022-09-09T10:12:39;4.57;;;2.40;;
13588;SDS011;6865;52.552;13.434;2022-09-09T10:18:52;7.68;;;2.35;;
13588;SDS011;6865;52.552;13.434;2022-09-09T10:21:32;7.30;;;2.13;;
13588;SDS011;6865;52.552;13.434;2022-09-09T10:24:48;8.65;;;2.05;;
13588;SDS011;6865;52.552;13.434;2022-09-09T10:27:30;4.75;;;2.20;;
13588;SDS011;6865;52.552;13.434;2022-09-09T10:36:10;7.15;;;2.03;;
13588;SDS011;6865;52.552;13.434;2022-09-09T10:38:40;3.67;;;2.10;;
13588;SDS011;6865;52.552;13.434;2022-09-09T10:41:11;3.72;;;1.98;;
13588;SDS011;6865;52.552;13.434;2022-09-09T10:47:05;5.10;;;2.00;;
13588;SDS011;6865;52.552;13.434;2022-09-09T10:55:37;4.50;;;1.67;;
13588;SDS011;6865;52.552;13.434;2022-09-09T10:58:16;3.95;;;1.80;;
13588;SDS011;6865;52.552;13.434;2022-09-09T11:00:48;5.95;;;2.00;;
13588;SDS011;6865;52.552;13.434;2022-09-09T11:03:26;3.42;;;1.85;;
13588;SDS011;6865;52.552;13.434;2022-09-09T11:06:06;5.57;;;2.00;;
13588;SDS011;6865;52.552;13.434;2022-09-09T11:08:39;5.38;;;1.80;;
13588;SDS011;6865;52.552;13.434;2022-09-09T11:14:08;3.80;;;1.60;;
13588;SDS011;6865;52.552;13.434;2022-09-09T11:16:46;6.43;;;1.88;;
13588;SDS011;6865;52.552;13.434;2022-09-09T11:19:37;5.13;;;1.95;;
13588;SDS011;6865;52.552;13.434;2022-09-09T11:25:08;4.32;;;1.98;;
13588;SDS011;6865;52.552;13.434;2022-09-09T11:27:43;3.55;;;1.80;;
13588;SDS011;6865;52.552;13.434;2022-09-09T11:30:17;4.88;;;1.70;;
13588;SDS011;6865;52.552;13.434;2022-09-09T11:33:16;5.95;;;1.83;;
13588;SDS011;6865;52.552;13.434;2022-09-09T11:44:45;4.00;;;1.95;;
13588;SDS011;6865;52.552;13.434;2022-09-09T11:47:22;3.13;;;1.77;;
13588;SDS011;6865;52.552;13.434;2022-09-09T11:50:41;6.10;;;1.73;;
13588;SDS011;6865;52.552;13.434;2022-09-09T11:52:43;3.25;;;1.50;;
13588;SDS011;6865;52.552;13.434;2022-09-09T11:55:27;3.88;;;1.75;;
13588;SDS011;6865;52.552;13.434;2022-09-09T11:57:57;3.88;;;1.70;;
13588;SDS011;6865;52.552;13.434;2022-09-09T12:00:41;3.35;;;1.70;;
13588;SDS011;6865;52.552;13.434;2022-09-09T12:03:31;2.63;;;1.50;;
13588;SDS011;6865;52.552;13.434;2022-09-09T12:06:11;3.38;;;1.60;;
13588;SDS011;6865;52.552;13.434;2022-09-09T12:08:44;4.00;;;1.48;;
13588;SDS011;6865;52.552;13.434;2022-09-09T12:11:23;2.53;;;1.40;;
13588;SDS011;6865;52.552;13.434;2022-09-09T12:13:55;2.92;;;1.30;;
13588;SDS011;6865;52.552;13.434;2022-09-09T12:16:35;5.95;;;3.45;;
13588;SDS011;6865;52.552;13.434;2022-09-09T12:19:05;5.28;;;1.65;;
13588;SDS011;6865;52.552;13.434;2022-09-09T12:21:49;3.42;;;1.45;;
13588;SDS011;6865;52.552;13.434;2022-09-09T12:24:30;2.38;;;1.40;;
13588;SDS011;6865;52.552;13.434;2022-09-09T12:27:07;3.88;;;1.35;;
13588;SDS011;6865;52.552;13.434;2022-09-09T12:32:28;6.05;;;1.70;;
13588;SDS011;6865;52.552;13.434;2022-09-09T12:35:19;3.33;;;1.50;;
13588;SDS011;6865;52.552;13.434;2022-09-09T12:40:21;2.88;;;1.38;;
13588;SDS011;6865;52.552;13.434;2022-09-09T12:42:52;4.65;;;1.50;;
13588;SDS011;6865;52.552;13.434;2022-09-09T12:45:22;2.47;;;1.30;;
13588;SDS011;6865;52.552;13.434;2022-09-09T12:47:56;4.88;;;1.45;;
13588;SDS011;6865;52.552;13.434;2022-09-09T12:50:31;2.63;;;1.30;;
13588;SDS011;6865;52.552;13.434;2022-09-09T12:53:07;3.35;;;1.48;;
13588;SDS011;6865;52.552;13.434;2022-09-09T12:55:49;3.63;;;1.33;;
13588;SDS011;6865;52.552;13.434;2022-09-09T12:58:18;5.53;;;1.52;;
13588;SDS011;6865;52.552;13.434;2022-09-09T13:00:49;2.42;;;1.20;;
13588;SDS011;6865;52.552;13.434;2022-09-09T13:03:19;3.25;;;1.30;;
13588;SDS011;6865;52.552;13.434;2022-09-09T13:05:47;1.67;;;1.20;;
13588;SDS011;6865;52.552;13.434;2022-09-09T13:08:14;2.85;;;1.40;;
13588;SDS011;6865;52.552;13.434;2022-09-09T13:10:47;2.63;;;1.40;;
13588;SDS011;6865;52.552;13.434;2022-09-09T13:13:34;6.55;;;2.00;;
13588;SDS011;6865;52.552;13.434;2022-09-09T13:16:07;4.35;;;1.70;;
13588;SDS011;6865;52.552;13.434;2022-09-09T13:18:48;3.10;;;1.58;;
13588;SDS011;6865;52.552;13.434;2022-09-09T13:21:15;3.72;;;1.50;;
13588;SDS011;6865;52.552;13.434;2022-09-09T13:23:42;2.28;;;1.23;;
13588;SDS011;6865;52.552;13.434;2022-09-09T13:26:25;4.57;;;1.67;;
13588;SDS011;6865;52.552;13.434;2022-09-09T13:28:53;3.30;;;1.20;;
13588;SDS011;6865;52.552;13.434;2022-09-09T13:31:22;3.05;;;1.30;;
13588;SDS011;6865;52.552;13.434;2022-09-09T13:33:55;3.30;;;1.27;;
13588;SDS011;6865;52.552;13.434;2022-09-09T13:36:31;2.83;;;1.40;;
13588;SDS011;6865;52.552;13.434;2022-09-09T13:39:01;3.83;;;1.30;;
13588;SDS011;6865;52.552;13.434;2022-09-09T13:41:33;2.33;;;1.27;;
13588;SDS011;6865;52.552;13.434;2022-09-09T13:44:03;2.67;;;1.30;;
13588;SDS011;6865;52.552;13.434;2022-09-09T13:46:36;6.57;;;1.65;;
13588;SDS011;6865;52.552;13.434;2022-09-09T13:51:38;3.20;;;1.52;;
13588;SDS011;6865;52.552;13.434;2022-09-09T13:54:08;1.73;;;1.08;;
13588;SDS011;6865;52.552;13.434;2022-09-09T13:56:36;4.85;;;1.20;;
13588;SDS011;6865;52.552;13.434;2022-09-09T13:59:06;2.90;;;1.30;;
13588;SDS011;6865;52.552;13.434;2022-09-09T14:01:37;2.90;;;1.60;;
13588;SDS011;6865;52.552;13.434;2022-09-09T14:04:04;3.80;;;1.50;;
13588;SDS011;6865;52.552;13.434;2022-09-09T14:06:33;2.75;;;1.25;;
13588;SDS011;6865;52.552;13.434;2022-09-09T14:09:03;2.83;;;1.40;;
13588;SDS011;6865;52.552;13.434;2022-09-09T14:11:42;5.22;;;1.83;;
13588;SDS011;6865;52.552;13.434;2022-09-09T14:14:09;5.45;;;1.40;;
13588;SDS011;6865;52.552;13.434;2022-09-09T14:16:35;4.78;;;1.50;;
13588;SDS011;6865;52.552;13.434;2022-09-09T14:19:03;2.58;;;1.40;;
13588;SDS011;6865;52.552;13.434;2022-09-09T14:21:30;3.05;;;1.38;;
13588;SDS011;6865;52.552;13.434;2022-09-09T14:23:57;4.22;;;2.08;;
13588;SDS011;6865;52.552;13.434;2022-09-09T14:26:24;3.60;;;1.30;;
13588;SDS011;6865;52.552;13.434;2022-09-09T14:28:52;2.45;;;1.25;;
13588;SDS011;6865;52.552;13.434;2022-09-09T14:31:21;4.30;;;1.60;;
13588;SDS011;6865;52.552;13.434;2022-09-09T14:33:48;3.72;;;1.90;;
13588;SDS011;6865;52.552;13.434;2022-09-09T14:36:16;4.55;;;1.55;;
13588;SDS011;6865;52.552;13.434;2022-09-09T14:38:43;2.97;;;1.40;;
13588;SDS011;6865;52.552;13.434;2022-09-09T14:41:10;4.32;;;1.25;;
13588;SDS011;6865;52.552;13.434;2022-09-09T14:43:39;1.95;;;1.25;;
13588;SDS011;6865;52.552;13.434;2022-09-09T14:46:06;4.35;;;1.70;;
13588;SDS011;6865;52.552;13.434;2022-09-09T14:48:35;3.70;;;1.83;;
13588;SDS011;6865;52.552;13.434;2022-09-09T14:51:06;3.17;;;1.25;;
13588;SDS011;6865;52.552;13.434;2022-09-09T14:53:36;2.50;;;1.60;;
13588;SDS011;6865;52.552;13.434;2022-09-09T14:56:11;3.47;;;1.58;;
13588;SDS011;6865;52.552;13.434;2022-09-09T14:58:40;2.13;;;1.48;;
13588;SDS011;6865;52.552;13.434;2022-09-09T15:01:07;3.40;;;1.30;;
13588;SDS011;6865;52.552;13.434;2022-09-09T15:03:38;4.38;;;1.50;;
13588;SDS011;6865;52.552;13.434;2022-09-09T15:06:07;2.58;;;1.45;;
13588;SDS011;6865;52.552;13.434;2022-09-09T15:08:38;2.75;;;1.30;;
13588;SDS011;6865;52.552;13.434;2022-09-09T15:11:08;1.77;;;1.15;;
13588;SDS011;6865;52.552;13.434;2022-09-09T15:13:36;5.00;;;1.40;;
13588;SDS011;6865;52.552;13.434;2022-09-09T15:16:04;4.60;;;1.90;;
13588;SDS011;6865;52.552;13.434;2022-09-09T15:18:36;6.30;;;1.40;;
13588;SDS011;6865;52.552;13.434;2022-09-09T15:21:12;2.67;;;1.38;;
13588;SDS011;6865;52.552;13.434;2022-09-09T15:23:41;3.42;;;1.60;;
13588;SDS011;6865;52.552;13.434;2022-09-09T15:26:09;4.03;;;1.50;;
13588;SDS011;6865;52.552;13.434;2022-09-09T15:28:36;3.67;;;1.60;;
13588;SDS011;6865;52.552;13.434;2022-09-09T15:31:05;3.00;;;1.40;;
13588;SDS011;6865;52.552;13.434;2022-09-09T15:33:34;3.42;;;1.27;;
13588;SDS011;6865;52.552;13.434;2022-09-09T15:36:12;3.63;;;1.50;;
13588;SDS011;6865;52.552;13.434;2022-09-09T15:38:40;4.20;;;1.60;;
13588;SDS011;6865;52.552;13.434;2022-09-09T15:41:07;3.50;;;1.30;;
13588;SDS011;6865;52.552;13.434;2022-09-09T15:43:34;5.93;;;2.45;;
13588;SDS011;6865;52.552;13.434;2022-09-09T15:46:05;3.30;;;2.08;;
13588;SDS011;6865;52.552;13.434;2022-09-09T15:48:44;4.15;;;1.60;;
13588;SDS011;6865;52.552;13.434;2022-09-09T15:51:14;3.60;;;1.90;;
13588;SDS011;6865;52.552;13.434;2022-09-09T15:54:00;2.70;;;1.50;;
13588;SDS011;6865;52.552;13.434;2022-09-09T15:56:28;2.28;;;1.58;;
13588;SDS011;6865;52.552;13.434;2022-09-09T15:59:01;4.85;;;2.08;;
13588;SDS011;6865;52.552;13.434;2022-09-09T16:01:31;6.63;;;1.63;;
13588;SDS011;6865;52.552;13.434;2022-09-09T16:03:59;3.13;;;1.35;;
13588;SDS011;6865;52.552;13.434;2022-09-09T16:06:26;4.32;;;1.70;;
13588;SDS011;6865;52.552;13.434;2022-09-09T16:08:55;2.92;;;1.35;;
13588;SDS011;6865;52.552;13.434;2022-09-09T16:11:30;3.20;;;1.55;;
13588;SDS011;6865;52.552;13.434;2022-09-09T16:13:59;2.28;;;1.55;;
13588;SDS011;6865;52.552;13.434;2022-09-09T16:16:27;2.58;;;1.30;;
13588;SDS011;6865;52.552;13.434;2022-09-09T16:18:55;4.05;;;1.80;;
13588;SDS011;6865;52.552;13.434;2022-09-09T16:21:24;3.40;;;1.67;;
13588;SDS011;6865;52.552;13.434;2022-09-09T16:23:57;3.15;;;1.63;;
13588;SDS011;6865;52.552;13.434;2022-09-09T16:26:26;4.15;;;1.70;;
13588;SDS011;6865;52.552;13.434;2022-09-09T16:28:53;2.35;;;1.60;;
13588;SDS011;6865;52.552;13.434;2022-09-09T16:31:21;3.80;;;2.30;;
13588;SDS011;6865;52.552;13.434;2022-09-09T16:33:49;2.80;;;2.00;;
13588;SDS011;6865;52.552;13.434;2022-09-09T16:36:17;4.50;;;2.10;;
13588;SDS011;6865;52.552;13.434;2022-09-09T16:38:45;3.63;;;2.08;;
13588;SDS011;6865;52.552;13.434;2022-09-09T16:41:13;5.63;;;2.47;;